createdAt,value
2023-01-12T00:02:24.936Z,1.58
2023-01-12T00:04:53.055Z,1.87
2023-01-12T00:07:21.101Z,2.40
2023-01-12T00:09:49.043Z,0.30
2023-01-12T00:12:17.007Z,1.27
2023-01-12T00:14:44.697Z,0.10
2023-01-12T00:17:16.677Z,0.20
2023-01-12T00:19:44.643Z,2.30
2023-01-12T00:22:12.620Z,0.00
2023-01-12T00:24:48.144Z,0.95
2023-01-12T00:27:19.619Z,0.10
2023-01-12T00:29:49.220Z,1.02
2023-01-12T00:32:20.221Z,0.30
2023-01-12T00:34:48.942Z,0.77
2023-01-12T00:37:19.457Z,0.98
2023-01-12T00:40:00.894Z,0.88
2023-01-12T00:42:48.301Z,1.48
2023-01-12T00:45:22.173Z,3.95
2023-01-12T00:47:50.814Z,2.33
2023-01-12T00:50:19.625Z,2.20
2023-01-12T00:52:47.506Z,0.25
2023-01-12T00:55:16.327Z,0.90
2023-01-12T00:57:44.444Z,1.70
2023-01-12T01:00:14.037Z,0.95
2023-01-12T01:02:42.343Z,1.55
2023-01-12T01:05:10.350Z,0.88
2023-01-12T01:07:38.587Z,0.60
2023-01-12T01:10:07.296Z,0.65
2023-01-12T01:12:34.764Z,2.37
2023-01-12T01:15:04.403Z,0.55
2023-01-12T01:17:32.586Z,0.60
2023-01-12T01:20:01.256Z,1.60
2023-01-12T01:22:28.781Z,1.25
2023-01-12T01:24:56.686Z,1.33
2023-01-12T01:27:24.150Z,0.80
2023-01-12T01:29:51.819Z,0.25
2023-01-12T01:32:19.693Z,0.93
2023-01-12T01:34:48.210Z,0.13
2023-01-12T01:37:16.090Z,1.98
2023-01-12T01:39:45.228Z,0.25
2023-01-12T01:42:28.272Z,0.90
2023-01-12T01:45:06.106Z,0.45
2023-01-12T01:47:40.180Z,0.10
2023-01-12T01:50:23.771Z,1.65
2023-01-12T01:52:54.168Z,0.95
2023-01-12T01:55:36.322Z,0.73
2023-01-12T01:58:20.246Z,0.00
2023-01-12T02:00:48.719Z,0.10
2023-01-12T02:03:16.992Z,0.28
2023-01-12T02:05:47.373Z,0.82
2023-01-12T02:08:22.483Z,1.45
2023-01-12T02:10:51.823Z,0.85
2023-01-12T02:13:58.834Z,0.30
2023-01-12T02:16:29.237Z,1.10
2023-01-12T02:19:36.984Z,0.62
2023-01-12T02:22:23.403Z,2.03
2023-01-12T02:25:20.295Z,0.93
2023-01-12T02:28:00.836Z,3.22
2023-01-12T02:30:39.401Z,1.80
2023-01-12T02:33:18.556Z,3.05
2023-01-12T02:36:05.817Z,2.40
2023-01-12T02:38:43.663Z,0.85
2023-01-12T02:41:45.777Z,0.70
2023-01-12T02:44:40.170Z,1.30
2023-01-12T02:47:14.084Z,2.15
2023-01-12T02:49:47.200Z,2.62
2023-01-12T02:52:17.868Z,1.58
2023-01-12T02:54:48.295Z,1.85
2023-01-12T02:57:16.764Z,4.87
2023-01-12T02:59:45.796Z,2.87
2023-01-12T03:02:16.771Z,2.22
2023-01-12T03:04:45.000Z,0.35
2023-01-12T03:07:42.210Z,2.80
2023-01-12T03:10:40.647Z,1.40
2023-01-12T03:13:11.560Z,2.78
2023-01-12T03:15:47.943Z,1.85
2023-01-12T03:18:18.792Z,1.45
2023-01-12T03:21:00.923Z,0.90
2023-01-12T03:23:33.623Z,0.50
2023-01-12T03:26:03.499Z,1.58
2023-01-12T03:28:34.528Z,1.60
2023-01-12T03:31:09.226Z,1.23
2023-01-12T03:33:40.187Z,2.10
2023-01-12T03:36:08.269Z,1.08
2023-01-12T03:38:56.357Z,2.17
2023-01-12T03:41:58.018Z,1.77
2023-01-12T03:44:53.961Z,2.60
2023-01-12T03:47:25.026Z,2.62
2023-01-12T03:50:10.837Z,1.35
2023-01-12T03:52:40.163Z,1.62
2023-01-12T03:55:12.410Z,1.17
2023-01-12T04:00:11.809Z,1.80
2023-01-12T04:02:45.579Z,0.80
2023-01-12T04:05:14.500Z,1.30
2023-01-12T04:07:42.738Z,1.55
2023-01-12T04:10:10.871Z,1.33
2023-01-12T04:12:38.429Z,1.00
2023-01-12T04:15:07.373Z,1.65
2023-01-12T04:17:35.619Z,1.67
2023-01-12T04:20:05.129Z,1.95
2023-01-12T04:22:45.652Z,0.40
2023-01-12T04:25:19.537Z,0.75
2023-01-12T04:27:51.605Z,1.00
2023-01-12T04:30:23.621Z,2.83
2023-01-12T04:32:51.638Z,1.45
2023-01-12T04:35:19.202Z,0.90
2023-01-12T04:37:47.636Z,1.65
2023-01-12T04:40:16.987Z,0.68
2023-01-12T04:43:01.955Z,0.50
2023-01-12T04:45:33.899Z,1.15
2023-01-12T04:48:06.451Z,1.12
2023-01-12T04:50:34.667Z,1.77
2023-01-12T04:53:03.954Z,1.12
2023-01-12T04:55:31.876Z,0.73
2023-01-12T04:58:01.112Z,1.33
2023-01-12T05:00:29.598Z,0.88
2023-01-12T05:03:02.105Z,0.32
2023-01-12T05:05:31.862Z,1.12
2023-01-12T05:08:19.432Z,0.50
2023-01-12T05:10:51.438Z,1.33
2023-01-12T05:13:20.291Z,2.65
2023-01-12T05:15:49.263Z,1.67
2023-01-12T05:18:18.608Z,1.90
2023-01-12T05:20:46.489Z,1.33
2023-01-12T05:23:14.556Z,0.70
2023-01-12T05:25:47.908Z,0.90
2023-01-12T05:28:20.825Z,1.65
2023-01-12T05:30:55.514Z,0.95
2023-01-12T05:33:25.234Z,1.35
2023-01-12T05:35:52.810Z,1.25
2023-01-12T05:38:20.954Z,0.60
2023-01-12T05:40:49.232Z,0.62
2023-01-12T05:43:35.496Z,1.77
2023-01-12T05:46:05.335Z,0.90
2023-01-12T05:48:34.337Z,1.30
2023-01-12T05:51:07.762Z,0.60
2023-01-12T05:53:43.517Z,1.10
2023-01-12T05:56:27.601Z,2.03
2023-01-12T05:58:58.792Z,1.58
2023-01-12T06:01:29.977Z,0.65
2023-01-12T06:04:00.101Z,1.67
2023-01-12T06:06:31.838Z,0.47
2023-01-12T06:09:01.489Z,1.15
2023-01-12T06:11:51.785Z,2.00
2023-01-12T06:14:22.937Z,1.30
2023-01-12T06:16:52.027Z,1.37
2023-01-12T06:19:19.994Z,1.27
2023-01-12T06:21:50.122Z,0.35
2023-01-12T06:24:18.837Z,1.85
2023-01-12T06:26:46.840Z,0.45
2023-01-12T06:29:14.846Z,0.30
2023-01-12T06:31:43.917Z,0.85
2023-01-12T06:34:14.294Z,1.23
2023-01-12T06:36:41.966Z,1.10
2023-01-12T06:39:11.898Z,1.77
2023-01-12T06:41:59.527Z,1.05
2023-01-12T06:44:27.717Z,1.83
2023-01-12T06:46:56.184Z,0.62
2023-01-12T06:49:24.144Z,2.22
2023-01-12T06:51:52.130Z,1.48
2023-01-12T06:54:20.539Z,1.98
2023-01-12T06:56:49.062Z,1.75
2023-01-12T06:59:18.512Z,1.42
2023-01-12T07:01:46.874Z,2.30
2023-01-12T07:04:14.954Z,2.67
2023-01-12T07:06:42.972Z,1.08
2023-01-12T07:09:11.086Z,1.20
2023-01-12T07:11:39.996Z,1.48
2023-01-12T07:14:09.721Z,0.45
2023-01-12T07:16:38.117Z,0.75
2023-01-12T07:19:07.717Z,1.00
2023-01-12T07:21:36.041Z,2.25
2023-01-12T07:24:07.459Z,0.10
2023-01-12T07:26:37.977Z,0.85
2023-01-12T07:29:11.397Z,0.20
2023-01-12T07:31:41.604Z,0.62
2023-01-12T07:34:10.101Z,1.83
2023-01-12T07:36:46.522Z,0.85
2023-01-12T07:39:15.136Z,2.70
2023-01-12T07:42:02.499Z,0.22
2023-01-12T07:44:36.576Z,2.22
2023-01-12T07:47:04.925Z,0.80
2023-01-12T07:49:33.587Z,1.60
2023-01-12T07:52:11.534Z,4.75
2023-01-12T07:54:45.671Z,1.05
2023-01-12T07:57:13.717Z,2.10
2023-01-12T07:59:41.799Z,1.25
2023-01-12T08:02:16.638Z,2.55
2023-01-12T08:04:48.574Z,1.55
2023-01-12T08:07:17.689Z,2.10
2023-01-12T08:09:46.725Z,1.23
2023-01-12T08:12:14.498Z,1.10
2023-01-12T08:14:42.976Z,2.05
2023-01-12T08:17:18.827Z,2.00
2023-01-12T08:19:55.854Z,2.03
2023-01-12T08:22:28.915Z,1.15
2023-01-12T08:25:01.433Z,2.53
2023-01-12T08:27:31.244Z,1.40
2023-01-12T08:30:11.571Z,1.80
2023-01-12T08:32:39.824Z,1.92
2023-01-12T08:35:07.852Z,1.23
2023-01-12T08:37:36.561Z,0.90
2023-01-12T08:40:09.463Z,2.80
2023-01-12T08:42:37.810Z,0.30
2023-01-12T08:45:09.828Z,0.80
2023-01-12T08:47:41.563Z,0.73
2023-01-12T08:50:11.525Z,0.30
2023-01-12T08:52:39.212Z,1.45
2023-01-12T08:55:07.761Z,1.90
2023-01-12T08:57:36.763Z,0.95
2023-01-12T09:00:06.764Z,1.00
2023-01-12T09:02:36.693Z,2.00
2023-01-12T09:05:06.694Z,0.70
2023-01-12T09:07:34.953Z,0.60
2023-01-12T09:10:11.794Z,0.52
2023-01-12T09:12:41.759Z,1.83
2023-01-12T09:15:10.868Z,1.87
2023-01-12T09:17:40.101Z,0.95
2023-01-12T09:20:08.304Z,1.33
2023-01-12T09:22:37.038Z,1.52
2023-01-12T09:25:05.081Z,0.88
2023-01-12T09:27:33.341Z,1.20
2023-01-12T09:30:01.246Z,2.15
2023-01-12T09:32:36.693Z,1.52
2023-01-12T09:35:07.483Z,1.60
2023-01-12T09:37:35.482Z,3.72
2023-01-12T09:40:04.914Z,0.82
2023-01-12T09:42:52.544Z,1.12
2023-01-12T09:45:45.506Z,1.25
2023-01-12T09:48:22.743Z,1.58
2023-01-12T09:51:11.801Z,1.10
2023-01-12T09:56:15.451Z,0.00
2023-01-12T09:59:11.832Z,0.73
2023-01-12T10:01:40.339Z,1.05
2023-01-12T10:04:09.905Z,2.58
2023-01-12T10:06:39.812Z,1.02
2023-01-12T10:09:14.005Z,1.58
2023-01-12T10:11:55.086Z,0.75
2023-01-12T10:14:26.723Z,1.52
2023-01-12T10:17:00.323Z,1.63
2023-01-12T10:19:36.309Z,0.47
2023-01-12T10:22:39.551Z,1.10
2023-01-12T10:25:27.330Z,0.30
2023-01-12T10:27:57.899Z,3.15
2023-01-12T10:30:37.733Z,0.62
2023-01-12T10:33:19.770Z,0.68
2023-01-12T10:38:42.029Z,0.93
2023-01-12T10:41:32.556Z,2.05
2023-01-12T10:44:01.530Z,1.77
2023-01-12T10:46:32.888Z,1.58
2023-01-12T10:49:21.974Z,0.28
2023-01-12T10:51:59.503Z,1.65
2023-01-12T10:54:33.742Z,1.15
2023-01-12T10:57:14.580Z,0.90
2023-01-12T10:59:51.952Z,0.88
2023-01-12T11:02:20.621Z,3.03
2023-01-12T11:04:52.469Z,4.18
2023-01-12T11:07:31.653Z,2.53
2023-01-12T11:10:26.426Z,1.02
2023-01-12T11:13:03.818Z,0.70
2023-01-12T11:15:38.987Z,1.90
2023-01-12T11:18:39.687Z,1.27
2023-01-12T11:21:13.706Z,0.85
2023-01-12T11:23:44.519Z,1.40
2023-01-12T11:26:23.930Z,1.15
2023-01-12T11:28:54.876Z,1.10
2023-01-12T11:31:29.744Z,1.37
2023-01-12T11:34:17.077Z,1.33
2023-01-12T11:36:48.162Z,2.75
2023-01-12T11:39:20.643Z,1.58
2023-01-12T11:42:13.881Z,2.00
2023-01-12T11:44:58.878Z,0.75
2023-01-12T11:47:31.521Z,2.78
2023-01-12T11:50:03.054Z,1.55
2023-01-12T11:52:31.295Z,2.08
2023-01-12T11:54:59.114Z,0.30
2023-01-12T11:57:49.684Z,1.98
2023-01-12T12:00:23.781Z,1.40
2023-01-12T12:03:01.411Z,2.55
2023-01-12T12:05:41.322Z,1.52
2023-01-12T12:08:28.703Z,1.30
2023-01-12T12:10:59.767Z,1.17
2023-01-12T12:13:31.123Z,1.87
2023-01-12T12:16:39.838Z,1.05
2023-01-12T12:19:35.273Z,1.40
2023-01-12T12:22:41.868Z,0.60
2023-01-12T12:25:23.113Z,3.17
2023-01-12T12:28:18.708Z,1.85
2023-01-12T12:31:23.146Z,1.50
2023-01-12T12:34:00.874Z,0.82
2023-01-12T12:36:39.788Z,1.65
2023-01-12T12:39:30.152Z,1.00
2023-01-12T12:42:33.045Z,1.95
2023-01-12T12:45:18.538Z,2.35
2023-01-12T12:47:56.831Z,2.00
2023-01-12T12:50:50.193Z,2.40
2023-01-12T12:53:26.986Z,1.35
2023-01-12T12:56:05.555Z,0.75
2023-01-12T12:58:53.544Z,0.90
2023-01-12T13:04:02.680Z,1.73
2023-01-12T13:06:49.780Z,0.90
2023-01-12T13:09:21.892Z,1.65
2023-01-12T13:11:59.848Z,2.03
2023-01-12T13:14:39.913Z,1.17
2023-01-12T13:17:23.510Z,2.22
2023-01-12T13:22:32.714Z,1.45
2023-01-12T13:25:20.712Z,1.90
2023-01-12T13:27:58.948Z,0.90
2023-01-12T13:30:35.539Z,2.03
2023-01-12T13:33:23.067Z,2.37
2023-01-12T13:35:51.236Z,1.37
2023-01-12T13:38:37.727Z,1.52
2023-01-12T13:41:17.863Z,1.80
2023-01-12T13:43:48.788Z,1.33
2023-01-12T13:46:25.152Z,0.68
2023-01-12T13:49:23.546Z,0.77
2023-01-12T13:51:57.816Z,1.10
2023-01-12T13:54:30.115Z,1.10
2023-01-12T13:57:10.835Z,0.37
2023-01-12T13:59:58.536Z,0.98
2023-01-12T14:02:32.986Z,0.88
2023-01-12T14:05:23.202Z,0.52
2023-01-12T14:08:17.061Z,0.57
2023-01-12T14:11:00.207Z,1.08
2023-01-12T14:13:50.964Z,1.65
2023-01-12T14:17:05.336Z,0.65
2023-01-12T14:19:33.511Z,0.37
2023-01-12T14:22:04.509Z,2.05
2023-01-12T14:24:36.674Z,1.58
2023-01-12T14:27:28.346Z,1.75
2023-01-12T14:30:02.588Z,1.05
2023-01-12T14:35:17.564Z,2.33
2023-01-12T14:38:00.063Z,1.12
2023-01-12T14:43:23.493Z,0.68
2023-01-12T14:46:16.521Z,1.35
2023-01-12T14:48:59.658Z,1.25
2023-01-12T14:51:40.517Z,1.12
2023-01-12T14:54:09.507Z,1.20
2023-01-12T14:56:39.460Z,1.27
2023-01-12T14:59:22.541Z,2.00
2023-01-12T15:01:54.791Z,1.58
2023-01-12T15:04:32.635Z,0.68
2023-01-12T15:07:13.514Z,1.87
2023-01-12T15:09:56.470Z,3.30
2023-01-12T15:12:31.935Z,3.25
2023-01-12T15:15:17.345Z,2.67
2023-01-12T15:17:53.518Z,4.20
2023-01-12T15:23:56.162Z,3.47
2023-01-12T15:26:27.565Z,1.85
2023-01-12T15:29:02.493Z,2.65
2023-01-12T15:31:40.674Z,1.45
2023-01-12T15:34:10.724Z,3.90
2023-01-12T15:36:39.692Z,1.95
2023-01-12T15:39:19.555Z,3.75
2023-01-12T15:42:07.370Z,4.05
2023-01-12T15:44:39.547Z,3.37
2023-01-12T15:47:18.502Z,5.65
2023-01-12T15:49:53.529Z,5.82
2023-01-12T15:52:25.322Z,5.55
2023-01-12T15:54:58.745Z,8.82
2023-01-12T15:57:35.478Z,10.85
2023-01-12T16:00:08.877Z,10.35
2023-01-12T16:02:42.650Z,10.70
2023-01-12T16:05:11.744Z,11.80
2023-01-12T16:07:40.197Z,11.35
2023-01-12T16:10:12.921Z,10.23
2023-01-12T16:12:47.979Z,7.85
2023-01-12T16:18:00.524Z,9.60
2023-01-12T16:20:30.744Z,12.63
2023-01-12T16:23:04.954Z,9.85
2023-01-12T16:25:35.681Z,6.85
2023-01-12T16:28:11.683Z,6.80
2023-01-12T16:30:54.514Z,5.97
2023-01-12T16:36:17.597Z,9.63
2023-01-12T16:38:50.997Z,6.40
2023-01-12T16:41:22.593Z,6.78
2023-01-12T16:43:55.070Z,9.85
2023-01-12T16:46:28.270Z,10.25
2023-01-12T16:49:11.452Z,8.93
2023-01-12T16:51:42.151Z,7.22
2023-01-12T16:54:20.153Z,4.68
2023-01-12T16:56:52.381Z,5.35
2023-01-12T16:59:25.607Z,5.32
2023-01-12T17:07:28.968Z,7.47
2023-01-12T17:10:00.716Z,3.60
2023-01-12T17:12:32.854Z,6.72
2023-01-12T17:15:04.224Z,7.37
2023-01-12T17:20:10.697Z,2.78
2023-01-12T17:22:48.495Z,6.43
2023-01-12T17:25:20.935Z,9.48
2023-01-12T17:27:52.997Z,9.02
2023-01-12T17:30:23.758Z,8.73
2023-01-12T17:32:57.747Z,7.35
2023-01-12T17:35:28.532Z,8.40
2023-01-12T17:37:59.911Z,7.97
2023-01-12T17:40:34.487Z,7.80
2023-01-12T17:43:15.100Z,7.72
2023-01-12T17:45:47.833Z,5.20
2023-01-12T17:48:22.538Z,5.68
2023-01-12T17:53:34.212Z,4.75
2023-01-12T17:56:09.847Z,10.05
2023-01-12T17:58:56.598Z,10.85
2023-01-12T18:01:34.055Z,10.13
2023-01-12T18:04:08.416Z,7.07
2023-01-12T18:11:56.435Z,5.75
2023-01-12T18:14:40.494Z,7.85
2023-01-12T18:17:16.724Z,6.12
2023-01-12T18:19:53.705Z,8.73
2023-01-12T18:22:25.880Z,10.35
2023-01-12T18:24:54.119Z,11.43
2023-01-12T18:27:23.812Z,6.65
2023-01-12T18:30:15.699Z,7.55
2023-01-12T18:32:56.433Z,7.10
2023-01-12T18:35:28.412Z,8.80
2023-01-12T18:37:58.723Z,9.40
2023-01-12T18:40:35.567Z,8.77
2023-01-12T18:45:50.472Z,13.93
2023-01-12T18:48:26.470Z,9.23
2023-01-12T18:51:26.621Z,11.25
2023-01-12T18:53:55.417Z,9.02
2023-01-12T18:56:33.570Z,8.68
2023-01-12T18:59:04.267Z,9.05
2023-01-12T19:04:18.493Z,8.98
2023-01-12T19:06:59.235Z,9.50
2023-01-12T19:09:37.629Z,6.18
2023-01-12T19:12:07.472Z,4.15
2023-01-12T19:17:46.491Z,4.97
2023-01-12T19:20:32.023Z,4.37
2023-01-12T19:23:30.198Z,4.43
2023-01-12T19:26:41.136Z,3.35
2023-01-12T19:29:10.552Z,6.82
2023-01-12T19:31:44.669Z,6.28
2023-01-12T19:34:14.420Z,7.12
2023-01-12T19:36:44.504Z,6.18
2023-01-12T19:39:30.463Z,8.43
2023-01-12T19:42:18.500Z,5.95
2023-01-12T19:44:47.143Z,6.07
2023-01-12T19:47:17.778Z,5.53
2023-01-12T19:49:50.583Z,5.60
2023-01-12T19:52:23.635Z,5.25
2023-01-12T19:57:48.889Z,4.80
2023-01-12T20:00:20.481Z,7.28
2023-01-12T20:05:33.449Z,6.87
2023-01-12T20:10:42.587Z,4.25
2023-01-12T20:13:18.323Z,4.20
2023-01-12T20:15:53.419Z,8.32
2023-01-12T20:18:22.377Z,7.87
2023-01-12T20:21:02.754Z,5.37
2023-01-12T20:23:35.699Z,4.43
2023-01-12T20:29:00.193Z,6.47
2023-01-12T20:31:30.555Z,7.95
2023-01-12T20:34:02.507Z,6.37
2023-01-12T20:36:30.670Z,6.07
2023-01-12T20:38:59.127Z,5.90
2023-01-12T20:41:29.597Z,3.67
2023-01-12T20:44:11.915Z,5.78
2023-01-12T20:46:47.507Z,5.12
2023-01-12T20:49:20.353Z,9.10
2023-01-12T20:51:53.949Z,5.47
2023-01-12T20:54:22.545Z,7.53
2023-01-12T20:56:50.747Z,8.13
2023-01-12T21:04:37.479Z,7.05
2023-01-12T21:07:09.747Z,7.12
2023-01-12T21:09:40.473Z,6.55
2023-01-12T21:12:18.814Z,4.68
2023-01-12T21:14:48.047Z,6.30
2023-01-12T21:17:21.373Z,7.70
2023-01-12T21:19:54.146Z,9.02
2023-01-12T21:22:27.422Z,6.03
2023-01-12T21:25:03.435Z,3.55
2023-01-12T21:27:35.402Z,5.82
2023-01-12T21:30:13.127Z,9.45
2023-01-12T21:32:43.546Z,4.57
2023-01-12T21:35:15.448Z,6.60
2023-01-12T21:37:45.819Z,8.75
2023-01-12T21:40:19.621Z,5.18
2023-01-12T21:43:10.702Z,7.30
2023-01-12T21:45:46.721Z,5.60
2023-01-12T21:48:17.942Z,7.62
2023-01-12T21:50:47.684Z,8.65
2023-01-12T21:53:22.375Z,9.45
2023-01-12T21:55:59.159Z,7.62
2023-01-12T21:58:31.898Z,8.57
2023-01-12T22:01:07.652Z,9.00
2023-01-12T22:03:41.433Z,3.80
2023-01-12T22:06:13.532Z,4.80
2023-01-12T22:08:42.069Z,3.92
2023-01-12T22:11:14.360Z,5.22
2023-01-12T22:13:44.164Z,10.80
2023-01-12T22:16:13.854Z,5.00
2023-01-12T22:18:46.587Z,5.83
2023-01-12T22:21:17.461Z,5.15
2023-01-12T22:23:47.106Z,6.57
2023-01-12T22:26:16.493Z,3.90
2023-01-12T22:28:50.644Z,4.75
2023-01-12T22:31:24.199Z,6.80
2023-01-12T22:33:55.870Z,3.75
2023-01-12T22:36:25.450Z,6.20
2023-01-12T22:38:53.343Z,5.72
2023-01-12T22:43:56.357Z,5.15
2023-01-12T22:46:26.526Z,4.65
2023-01-12T22:51:33.772Z,6.20
2023-01-12T22:54:05.331Z,2.80
2023-01-12T22:59:01.236Z,5.28
2023-01-12T23:01:28.799Z,7.00
2023-01-12T23:03:58.392Z,6.90
2023-01-12T23:06:27.008Z,2.83
2023-01-12T23:08:56.966Z,3.35
2023-01-12T23:11:26.629Z,4.80
2023-01-12T23:13:55.191Z,5.78
2023-01-12T23:16:24.635Z,6.37
2023-01-12T23:18:55.551Z,7.53
2023-01-12T23:21:27.661Z,4.60
2023-01-12T23:23:57.649Z,6.57
2023-01-12T23:26:31.314Z,4.65
2023-01-12T23:29:00.742Z,4.40
2023-01-12T23:31:33.199Z,6.37
2023-01-12T23:34:01.811Z,6.70
2023-01-12T23:36:31.863Z,3.28
2023-01-12T23:39:01.603Z,5.00
2023-01-12T23:41:32.618Z,4.82
2023-01-12T23:44:02.788Z,5.85
2023-01-12T23:46:34.064Z,2.15
2023-01-12T23:49:02.758Z,5.40
2023-01-12T23:51:32.226Z,9.15
2023-01-12T23:54:01.311Z,7.03
2023-01-12T23:56:32.252Z,3.90
2023-01-12T23:59:00.771Z,8.60
